Welcome to our Virtual Airline
Sign-in:

Flight MFC6801

  • Submitted By: Marcin Cetera
  • Departure Airport: Point Baker SPB (KPB)
  • Arrival Airport: Cape Pole SPB (Z71)
  • Aircraft: BELL 412EP (N010MM )
  • Flight Time: 00.35.14
  • Date Submitted: 20/03/25
  • Route: FOLLOW THE TOUR FP
  • Status: Accepted
Flight Details
Gross Revenue:
(3 load / $ 49.00 per unit
$ 147.00
Fuel Cost:
(17.6901 fuel used @ 5.1 / unit)
$ 90.22

Additional Log Information:

View Log

[22:40] ----- Flight Opened -----
[22:40] Cigar Box - 1.1.4.0
[22:40] FS: FSX
[22:40] FSUIPC: v4,966
[22:40] Flight Number: MFC6801
[22:40] FS Aircraft: C185F SKYWAGON FLOAT WINDOW DOOR
[22:40] FS Model: C185
[22:40] FS Type: Cessna
[22:40] Departure: KPB
[22:40] Arrival: Z71
[22:40] Flight Level: 1500
[22:40] Flight Type: H
[22:40] Passengers: 3
[22:40] FOB: 230 lbs
[22:40] Gate: n/a
[22:40] NOTE: Parking Brake Ignored
[22:40] Crash Detection: Disabled
[22:40] Crash Detection Aircraft: Disabled
[22:40] Engines: 1 Piston
[22:40] NOTE: Boarding has started
[22:40] Engine 1: Started
[22:40] Light Data: Beacon ON
[22:40] Main Door Closed
[22:40] COM1: 128.30
[22:40] COM2: 127.80
[22:40] Transponder: 1200
[22:40] NAV1: 113.70
[22:40] NAV2: 110.60
[22:40] ADF1: 284.0
[22:40] ADF2: 240.0
[22:40] Navigation Mode: NAV
[22:40] Light Data: Landing lights ON
[22:40] Light Data: Navigation ON
[22:40] FS: Paused
[22:41] FS: Unpaused
[22:41] Flaps: Position 1
[22:41] NOTE: Taxi started
[22:42] NOTE: ----- TAKE OFF -----
[22:42] GS: 60 knots
[22:42] TAS: 60 knots
[22:42] IAS: 60 knots
[22:42] VS: -9 fpm
[22:42] FOB: 230 lbs
[22:42] Heading: 342°
[22:42] Pitch: 5°
[22:42] Bank: 0°
[22:42] Aircraft Weight: 3155,15 lbs
[22:42] Nearest Airport: KPB
[22:42] Distance: 0,52 miles
[22:42] Runway: ???
[22:42] Ground Surface: Water
[22:42] Ground Condition: Normal
[22:42] NOTE: Weather Report
[22:42] Wind Heading: 341°
[22:42] Wind Speed: 0 knots
[22:42] OAT: 15° C
[22:42] TAT: 15° C
[22:42] Precipitation: None
[22:42] Dew Point: 5° C
[22:42] Visibility: 62 miles
[22:42] METAR: KPBX 252135Z AUTO 00000KT 10SM BKN025 14/07 A2997 RMK AO2 T01360071 KPBF 252053Z AUTO 11005KT 10SM CLR 19/12 A2993 RMK AO2 SLP133 T01890117 57026 KPBH 252135Z AUTO 28003KT 7SM RA SCT005 BKN009 OVC019 04/04 A2977 RMK AO2 P0004 T00430043 KPBG 252053Z AUTO 15011KT 10SM CLR 07/M02 A3005 RMK AO2 SLP180 T00671017 56012 KPBI 252053Z 23011G15KT 10SM SCT060 BKN080 31/17 A2992 RMK AO2 SLP130 T03110172 56023
[22:42] NOTE: Climb started
[22:42] View Mode: Virtual Cockpit
[22:42] Flaps: Position 0
[22:42] GS: 66 knots
[22:42] TAS: 66 knots
[22:42] IAS: 66 knots
[22:42] VS: 605 fpm
[22:43] NOTE: TOC reached
[22:43] NOTE: Cruise started
[22:43] GS: 97 knots
[22:43] TAS: 97 knots
[22:43] IAS: 97 knots
[22:43] VS: 189 fpm
[22:43] FOB: 228 lbs
[22:43] Heading: 151°
[22:43] Pitch: 3°
[22:43] Bank: 0°
[22:43] Aircraft Weight: 3152,59 lbs
[22:53] Recovery: Flight Saved
[22:58] NOTE: TOD reached
[22:58] NOTE: Descent started
[22:58] GS: 110 knots
[22:58] TAS: 112 knots
[22:58] IAS: 110 knots
[22:58] VS: -519 fpm
[22:58] FOB: 207 lbs
[22:58] Heading: 114°
[22:58] Pitch: 0°
[22:58] Bank: -1°
[22:58] Aircraft Weight: 3132,72 lbs
[22:58] NOTE: On approach
[23:00] Recovery: Flight Saved
[23:02] Flaps: Position 1
[23:02] GS: 99 knots
[23:02] TAS: 99 knots
[23:02] IAS: 98 knots
[23:02] VS: -329 fpm
[23:03] Flaps: Position 2
[23:03] GS: 91 knots
[23:03] TAS: 91 knots
[23:03] IAS: 91 knots
[23:03] VS: -393 fpm
[23:04] NOTE: ----- LANDED -----
[23:04] Landing Rate: -266,06 fpm
[23:04] GS: 62 knots
[23:04] TAS: 62 knots
[23:04] IAS: 62 knots
[23:04] VS: -262 fpm
[23:04] FOB: 202 lbs
[23:04] Heading: 274°
[23:04] Pitch: 4°
[23:04] Bank: -1°
[23:04] Aircraft Weight: 3127,81 lbs
[23:04] Nearest Airport: EDA
[23:04] Distance: 0,76 miles
[23:04] Runway: ???
[23:04] Ground Surface: Water
[23:04] Ground Condition: Normal
[23:04] NOTE: Weather Report
[23:04] Wind Heading: 341°
[23:04] Wind Speed: 0 knots
[23:04] OAT: 15° C
[23:04] TAT: 15° C
[23:04] Precipitation: None
[23:04] Dew Point: 4° C
[23:04] Visibility: 62 miles
[23:04] METAR:
[23:04] View Mode: Virtual Cockpit
[23:04] NOTE: Taxi started
[23:06] Flaps: Position 0
[23:06] Flaps: Position 1
[23:07] View Mode: Virtual Cockpit
[23:07] Flaps: Position 0
[23:07] GS: 79 knots
[23:07] TAS: 80 knots
[23:07] IAS: 80 knots
[23:07] VS: 575 fpm
[23:14] Flaps: Position 1
[23:14] GS: 91 knots
[23:14] TAS: 91 knots
[23:14] IAS: 90 knots
[23:14] VS: -459 fpm
[23:15] NOTE: ----- LANDED -----
[23:15] Landing Rate: -249,14 fpm
[23:15] GS: 54 knots
[23:15] TAS: 54 knots
[23:15] IAS: 54 knots
[23:15] VS: -246 fpm
[23:15] FOB: 192 lbs
[23:15] Heading: 153°
[23:15] Pitch: 10°
[23:15] Bank: -1°
[23:15] Aircraft Weight: 3117,44 lbs
[23:15] Nearest Airport: Z71
[23:15] Distance: 0,35 miles
[23:15] Runway: ???
[23:15] Ground Surface: Water
[23:15] Ground Condition: Normal
[23:15] NOTE: Weather Report
[23:15] Wind Heading: 341°
[23:15] Wind Speed: 0 knots
[23:15] OAT: 15° C
[23:15] TAT: 15° C
[23:15] Precipitation: None
[23:15] Dew Point: 4° C
[23:15] Visibility: 62 miles
[23:15] METAR:
[23:15] View Mode: Virtual Cockpit
[23:16] Gate: n/a
[23:16] NOTE: Flight Completed
[23:16] FS Aircraft: C185F SKYWAGON FLOAT WINDOW DOOR
[23:16] FS Model: C185
[23:16] FS Type: Cessna
[23:16] FOB: 192 lbs
[23:16] Fuel Used: 39 lbs
[23:16] Flight Time: 00:35:14
[23:16] Flight Time (Dawn): 00:00:00
[23:16] Flight Time (Day): 00:35:14
[23:16] Flight Time (Dusk): 00:00:00
[23:16] Flight Time (Night): 00:00:00
[23:16] Total Landings: 2
[23:16] MaxSim Rate: 1x
[23:16] Cigar Box - 1.1.4.0
[23:16] ----- Flight Closed -----

Route Map